Terminal Aerodrome Forecast
Issued by NWS

Home | Current Version | Previous Version | Text Only | Print | Product List | Glossary On
Versions: 1 2 3 4 5 6 7 8 9 10 11 12 13 14 15 16 17 18 19 20 21
000
FTUS46 KLOX 191700
TAFSBP
TAF
KSBP 191735Z 1918/2018 18006KT P6SM SCT050 OVC200
     FM192300 18006KT P6SM -RA BKN035 OVC050
      TEMPO 2000/2004 OVC028
     FM200400 VRB03KT P6SM SCT010 BKN035
     FM200600 VRB03KT P6SM BKN120
     FM201300 VRB03KT 3SM BR OVC008=

USA.gov is the U.S. government's official web portal to all federal, state and local government web resources and services.